MREC weather

El Carmen de Siquirres Airport
Siquirres, Limon, Costa Rica

Public forecast

Using degrees Celsius for public forecast. Weather courtesy of forecast.io.

METAR (pilot weather report)

Closest report is Limon International Airport, 30.4 nm (56.3 km) ESE. Retrieved 2019/04/18 14:00 UTC (13 minutes ago):

MRLM 181400Z 23003KT 9999 FEWT015 BKN090 24/23 A2992

TAF (pilot weather forecast)

Closest forecast is Limon International Airport, 30.4 nm (56.3 km) ESE. Retrieved 2019/04/18 12:06 UTC (2 hours ago):

TAF MRLM 181100Z 1812/1912 25004KT 9999 FEW020 SCT100 TX30/1817Z TN22/1912Z BECMG 1816/1818 07005KT BECMG 1900/1902 25003KT